Time;durP1;ratioP1;P1;durP2;ratioP2;P2;SDS_P1;SDS_P2;PMS_P1;PMS_P2;Temp;Humidity;BMP_temperature;BMP_pressure;BME280_temperature;BME280_humidity;BME280_pressure;Samples;Min_cycle;Max_cycle;Signal;HPM_P1;HPM_P2
2024/03/06 00:01:43;;;;;;;55.13;28.58;;;;;;;11.92;69.27;101868.16;5063260;28;20033;-80
2024/03/06 00:04:08;;;;;;;55.33;29.05;;;;;;;11.99;69.39;101867.44;5067268;28;20025;-78
2024/03/06 00:06:34;;;;;;;52.92;29.10;;;;;;;12.01;69.37;101867.50;5067119;28;20444;-80
2024/03/06 00:09:05;;;;;;;52.50;28.90;;;;;;;12.05;69.29;101872.81;5065489;28;20107;-78
2024/03/06 00:11:30;;;;;;;54.53;28.77;;;;;;;12.05;69.28;101880.66;5062792;28;20048;-79
2024/03/06 00:13:58;;;;;;;51.47;29.08;;;;;;;12.04;69.44;101875.41;5055091;28;20393;-80
2024/03/06 00:16:24;;;;;;;51.95;28.10;;;;;;;12.06;69.24;101884.16;5053374;28;20041;-79
2024/03/06 00:18:52;;;;;;;51.28;28.35;;;;;;;12.14;69.21;101895.66;5054410;28;20041;-80
2024/03/06 00:21:20;;;;;;;53.67;29.10;;;;;;;12.11;69.62;101903.44;5055641;28;20033;-81
2024/03/06 00:23:46;;;;;;;57.35;28.98;;;;;;;12.15;69.51;101908.78;5057023;28;20029;-79
2024/03/06 00:26:14;;;;;;;53.75;28.35;;;;;;;12.20;69.17;101903.66;5069604;28;20062;-79
2024/03/06 00:28:42;;;;;;;53.30;29.27;;;;;;;12.21;69.53;101908.03;5059382;28;20124;-80
2024/03/06 00:31:11;;;;;;;48.15;27.98;;;;;;;12.23;69.14;101908.06;5057014;28;20067;-80
2024/03/06 00:33:36;;;;;;;51.58;28.20;;;;;;;12.25;69.26;101904.66;5055166;28;20041;-79
2024/03/06 00:36:02;;;;;;;56.00;31.00;;;;;;;12.19;69.26;101907.13;5052493;28;20456;-80
2024/03/06 00:38:33;;;;;;;54.55;29.83;;;;;;;12.32;68.98;101897.84;5053636;28;20045;-79
2024/03/06 00:40:58;;;;;;;51.10;28.70;;;;;;;12.30;68.73;101910.88;5053667;28;20048;-79
2024/03/06 00:43:24;;;;;;;49.28;27.75;;;;;;;12.27;68.85;101902.94;5052658;28;20040;-80
2024/03/06 00:45:49;;;;;;;49.85;28.45;;;;;;;12.19;69.25;101909.75;5057509;28;20140;-80
2024/03/06 00:48:15;;;;;;;51.20;28.88;;;;;;;12.18;69.39;101913.19;5060415;28;20040;-80
2024/03/06 00:50:43;;;;;;;52.05;28.83;;;;;;;12.06;69.84;101911.19;5053766;28;20033;-80
2024/03/06 00:53:09;;;;;;;54.42;29.27;;;;;;;12.03;70.16;101908.47;5053285;28;20037;-80
2024/03/06 00:55:34;;;;;;;56.92;30.25;;;;;;;12.04;69.95;101915.47;5051057;28;20387;-79
2024/03/06 00:57:59;;;;;;;54.28;29.20;;;;;;;12.09;69.89;101911.25;5053523;28;20032;-79
2024/03/06 01:00:25;;;;;;;53.78;29.38;;;;;;;12.12;69.95;101908.72;5052355;28;20041;-80
2024/03/06 01:02:50;;;;;;;51.33;29.23;;;;;;;12.22;69.28;101917.66;5053573;28;20080;-79
2024/03/06 01:05:16;;;;;;;58.05;30.02;;;;;;;12.19;69.14;101914.97;5050464;28;20418;-79
2024/03/06 01:07:44;;;;;;;52.83;29.15;;;;;;;12.18;69.36;101915.81;5052833;28;20214;-80
2024/03/06 01:10:12;;;;;;;56.10;29.92;;;;;;;12.30;69.00;101916.09;5052334;28;20051;-79
2024/03/06 01:12:44;;;;;;;55.47;30.48;;;;;;;12.23;68.77;101918.53;5052359;28;20045;-80
2024/03/06 01:15:12;;;;;;;48.70;27.42;;;;;;;12.30;68.95;101917.84;5052693;28;20029;-79
2024/03/06 01:17:37;;;;;;;52.28;29.95;;;;;;;12.21;69.06;101921.09;5061179;28;20041;-81
2024/03/06 01:20:06;;;;;;;54.72;29.40;;;;;;;12.19;69.22;101930.66;5061567;28;20036;-79
2024/03/06 01:22:32;;;;;;;52.83;30.13;;;;;;;12.18;69.39;101928.88;5053784;28;20496;-80
2024/03/06 01:25:01;;;;;;;49.72;28.45;;;;;;;12.20;69.53;101935.91;5052522;28;20056;-79
2024/03/06 01:27:27;;;;;;;53.85;30.20;;;;;;;12.27;69.31;101925.59;5052943;28;20065;-80
2024/03/06 01:29:52;;;;;;;55.10;30.13;;;;;;;12.26;69.29;101923.84;5057173;28;20042;-81
2024/03/06 01:32:17;;;;;;;46.30;27.30;;;;;;;12.38;68.95;101930.22;5057458;28;20036;-79
2024/03/06 01:34:46;;;;;;;49.92;28.60;;;;;;;12.33;68.99;101939.69;5055064;28;20033;-80
2024/03/06 01:37:14;;;;;;;51.90;28.27;;;;;;;12.35;68.81;101931.88;5052333;28;20112;-79
2024/03/06 01:39:39;;;;;;;54.17;29.73;;;;;;;12.38;68.63;101937.19;5051872;28;20036;-80
2024/03/06 01:42:11;;;;;;;51.92;30.35;;;;;;;12.28;68.96;101937.81;5052237;28;20105;-80
2024/03/06 01:44:36;;;;;;;54.13;29.65;;;;;;;12.25;69.11;101937.75;5052152;28;20119;-80
2024/03/06 01:47:02;;;;;;;57.42;31.10;;;;;;;12.29;68.56;101937.88;5053271;28;20057;-79
2024/03/06 01:49:27;;;;;;;56.28;29.10;;;;;;;12.30;68.93;101938.75;5051830;28;20059;-80
2024/03/06 01:51:55;;;;;;;55.88;31.15;;;;;;;12.28;69.18;101938.69;5051999;28;20044;-78
2024/03/06 01:54:21;;;;;;;54.03;30.65;;;;;;;12.30;68.87;101928.28;5050891;28;20071;-78
2024/03/06 01:56:50;;;;;;;58.80;30.60;;;;;;;12.27;68.98;101943.88;5052531;28;20121;-79
2024/03/06 01:59:22;;;;;;;54.92;30.35;;;;;;;12.30;69.32;101939.63;5051494;28;20040;-78
2024/03/06 02:01:48;;;;;;;52.78;30.48;;;;;;;12.23;69.40;101937.72;5053113;28;20317;-79
2024/03/06 02:04:18;;;;;;;51.40;29.30;;;;;;;12.23;69.44;101948.19;5054380;28;20087;-81
2024/03/06 02:06:49;;;;;;;54.35;29.83;;;;;;;12.27;69.08;101946.50;5052658;28;20033;-79
2024/03/06 02:09:15;;;;;;;51.90;29.23;;;;;;;12.14;69.46;101954.06;5055682;28;20044;-79
2024/03/06 02:11:41;;;;;;;52.92;31.00;;;;;;;12.10;69.23;101959.19;5052107;28;20029;-79
2024/03/06 02:14:09;;;;;;;50.70;30.55;;;;;;;12.19;69.22;101954.19;5051318;28;20163;-79
2024/03/06 02:16:39;;;;;;;54.97;30.83;;;;;;;11.92;69.64;101954.38;5051838;28;20037;-78
2024/03/06 02:19:08;;;;;;;49.83;30.77;;;;;;;12.01;70.01;101962.47;5052860;28;20037;-80
2024/03/06 02:21:33;;;;;;;53.13;30.27;;;;;;;11.99;69.84;101969.38;5051363;28;20126;-79
2024/03/06 02:24:05;;;;;;;52.50;30.35;;;;;;;12.16;69.66;101957.59;5050802;28;20061;-80
2024/03/06 02:26:30;;;;;;;53.85;30.15;;;;;;;12.08;69.62;101959.13;5052214;28;20516;-80
2024/03/06 02:28:58;;;;;;;54.15;30.42;;;;;;;12.18;69.01;101960.25;5052798;28;20053;-79
2024/03/06 02:31:23;;;;;;;51.47;28.85;;;;;;;12.22;68.78;101953.34;5051973;28;20041;-79
2024/03/06 02:33:49;;;;;;;57.45;30.23;;;;;;;12.14;68.95;101953.16;5051529;28;20029;-80
2024/03/06 02:36:18;;;;;;;50.97;28.85;;;;;;;12.13;68.68;101951.44;5053148;28;20044;-80
2024/03/06 02:38:44;;;;;;;49.35;28.73;;;;;;;12.05;68.65;101958.19;5052972;28;20502;-79
2024/03/06 02:41:10;;;;;;;51.75;29.77;;;;;;;11.98;68.87;101957.16;5058908;28;20063;-80
2024/03/06 02:43:36;;;;;;;51.65;30.42;;;;;;;11.95;69.09;101966.66;5058708;28;20029;-78
2024/03/06 02:46:05;;;;;;;53.92;30.05;;;;;;;11.93;68.89;101957.88;5068731;28;20096;-80
2024/03/06 02:48:30;;;;;;;50.45;29.60;;;;;;;11.91;69.12;101963.06;5066132;28;20100;-81
2024/03/06 02:50:56;;;;;;;56.28;30.42;;;;;;;11.83;69.59;101967.25;5063226;28;20061;-80
2024/03/06 02:53:22;;;;;;;55.22;30.55;;;;;;;11.84;69.79;101961.13;5055748;28;20120;-81
2024/03/06 02:55:53;;;;;;;53.58;30.23;;;;;;;11.86;70.06;101964.69;5053954;28;20061;-78
2024/03/06 02:58:22;;;;;;;54.90;31.55;;;;;;;11.84;69.86;101957.63;5055699;28;20087;-79
2024/03/06 03:00:50;;;;;;;58.85;30.95;;;;;;;11.84;70.42;101948.06;5055073;28;20037;-79
2024/03/06 03:03:19;;;;;;;52.67;30.80;;;;;;;11.88;69.92;101943.81;5056001;28;20045;-80
2024/03/06 03:05:45;;;;;;;54.50;31.15;;;;;;;11.83;69.96;101950.69;5056852;28;20410;-79
2024/03/06 03:08:10;;;;;;;54.78;31.30;;;;;;;11.73;70.23;101959.94;5057442;28;20036;-79
2024/03/06 03:10:35;;;;;;;55.72;32.22;;;;;;;11.79;70.50;101962.75;5057734;28;20037;-80
2024/03/06 03:13:04;;;;;;;57.35;32.47;;;;;;;11.86;70.82;101966.41;5061365;28;20040;-81
2024/03/06 03:15:30;;;;;;;56.05;32.10;;;;;;;11.89;70.86;101963.91;5066225;28;20037;-80
2024/03/06 03:17:55;;;;;;;60.40;34.85;;;;;;;11.74;71.18;101964.38;5063296;28;20036;-78
2024/03/06 03:20:20;;;;;;;62.33;33.78;;;;;;;11.72;71.39;101966.00;5063147;28;20063;-79
2024/03/06 03:22:49;;;;;;;61.42;33.33;;;;;;;11.95;70.89;101961.44;5072260;28;20033;-80
2024/03/06 03:25:14;;;;;;;59.65;33.65;;;;;;;12.02;70.66;101964.22;5067401;28;20067;-79
2024/03/06 03:27:40;;;;;;;59.33;33.97;;;;;;;11.79;71.20;101961.03;5067402;28;20033;-79
2024/03/06 03:30:08;;;;;;;58.50;33.63;;;;;;;11.98;70.95;101970.22;5068778;28;20043;-78
2024/03/06 03:32:34;;;;;;;58.67;33.50;;;;;;;11.78;71.35;101969.72;5070612;28;20033;-80
2024/03/06 03:35:05;;;;;;;57.90;33.15;;;;;;;12.03;70.60;101975.56;5068710;28;20127;-79
2024/03/06 03:37:30;;;;;;;57.05;33.13;;;;;;;11.99;70.37;101981.56;5059381;28;20036;-78
2024/03/06 03:39:59;;;;;;;53.88;31.63;;;;;;;11.78;71.25;101971.44;5059067;28;20025;-80
2024/03/06 03:42:27;;;;;;;59.63;33.33;;;;;;;11.96;70.61;101979.75;5056265;28;20128;-80
2024/03/06 03:44:58;;;;;;;54.72;32.28;;;;;;;11.94;70.72;101976.22;5056421;28;20060;-78
2024/03/06 03:47:24;;;;;;;58.15;33.50;;;;;;;12.03;70.35;101971.22;5056337;28;20123;-79
2024/03/06 03:49:49;;;;;;;55.22;32.95;;;;;;;12.06;70.10;101973.91;5056458;28;20041;-79
2024/03/06 03:52:15;;;;;;;57.75;33.72;;;;;;;12.09;69.60;101970.47;5058602;28;20033;-78
2024/03/06 03:54:41;;;;;;;57.13;32.17;;;;;;;12.01;69.98;101977.25;5056410;28;20137;-80
2024/03/06 03:57:09;;;;;;;59.88;34.22;;;;;;;11.82;71.01;101978.53;5055943;28;20510;-79
2024/03/06 03:59:38;;;;;;;58.72;33.60;;;;;;;11.83;70.50;101975.06;5058434;28;20682;-79
2024/03/06 04:02:04;;;;;;;58.30;33.08;;;;;;;11.86;70.67;101982.09;5060554;28;20065;-79
2024/03/06 04:04:35;;;;;;;57.90;33.30;;;;;;;11.96;70.53;101971.91;5062577;28;20378;-80
2024/03/06 04:07:04;;;;;;;57.78;33.53;;;;;;;11.74;71.13;101982.66;5061347;28;20037;-80
2024/03/06 04:09:30;;;;;;;55.53;32.80;;;;;;;11.89;70.54;101985.69;5061275;28;20037;-79
2024/03/06 04:11:55;;;;;;;56.65;32.72;;;;;;;11.75;71.22;101990.53;5066521;28;20025;-80
2024/03/06 04:14:23;;;;;;;56.45;32.45;;;;;;;11.67;71.15;101986.81;5061866;28;20057;-79
2024/03/06 04:16:49;;;;;;;60.78;34.05;;;;;;;11.63;71.53;101994.53;5061268;28;20029;-79
2024/03/06 04:19:18;;;;;;;56.25;33.53;;;;;;;11.45;71.77;101994.91;5057816;28;20367;-80
2024/03/06 04:21:46;;;;;;;59.13;34.20;;;;;;;11.73;70.97;101994.84;5057240;28;20060;-80
2024/03/06 04:24:11;;;;;;;55.78;32.00;;;;;;;11.89;70.49;101993.53;5060059;28;20036;-79
2024/03/06 04:26:37;;;;;;;58.97;32.58;;;;;;;11.84;70.52;101994.22;5063630;28;20105;-79
2024/03/06 04:29:05;;;;;;;58.20;33.58;;;;;;;11.75;70.99;102001.00;5066304;28;20041;-79
2024/03/06 04:31:35;;;;;;;56.67;32.08;;;;;;;11.88;70.33;101996.09;5061742;28;20029;-80
2024/03/06 04:34:00;;;;;;;56.35;33.28;;;;;;;11.84;70.25;102010.78;5065133;28;20109;-78
2024/03/06 04:36:31;;;;;;;59.25;33.28;;;;;;;11.67;70.84;102001.59;5062066;28;20032;-79
2024/03/06 04:38:59;;;;;;;58.40;32.67;;;;;;;11.78;70.40;102001.06;5060849;28;20059;-79
2024/03/06 04:41:25;;;;;;;57.15;31.95;;;;;;;11.78;70.15;101998.44;5057599;28;20061;-79
2024/03/06 04:43:52;;;;;;;56.45;33.05;;;;;;;11.53;70.38;101993.38;5060048;28;20063;-80
2024/03/06 04:46:23;;;;;;;59.38;33.13;;;;;;;11.45;70.93;101994.91;5059067;28;20029;-79
2024/03/06 04:48:50;;;;;;;56.35;32.83;;;;;;;11.43;70.66;102006.13;5059053;28;20033;-80
2024/03/06 04:51:19;;;;;;;55.25;32.38;;;;;;;11.47;69.72;102010.59;5068543;28;20040;-78
2024/03/06 04:53:50;;;;;;;55.72;32.50;;;;;;;11.35;69.43;102009.41;5068121;28;20024;-78
2024/03/06 04:56:20;;;;;;;54.72;31.23;;;;;;;11.25;69.22;102014.34;5063284;28;20059;-80
2024/03/06 04:58:46;;;;;;;56.50;31.98;;;;;;;11.11;69.50;102020.88;5059057;28;20029;-79
2024/03/06 05:01:12;;;;;;;58.45;33.10;;;;;;;11.01;70.43;102032.78;5062816;28;20048;-78
2024/03/06 05:03:38;;;;;;;59.78;33.72;;;;;;;10.98;70.39;102036.16;5059734;28;20467;-79
2024/03/06 05:06:24;;;;;;;58.70;33.55;;;;;;;10.95;70.41;102035.22;5066289;28;20021;-79
2024/03/06 05:08:49;;;;;;;60.88;32.50;;;;;;;10.90;70.33;102035.06;5051893;28;20033;-80
2024/03/06 05:11:15;;;;;;;58.70;33.30;;;;;;;10.88;70.69;102038.47;5054643;28;20116;-79
2024/03/06 05:13:41;;;;;;;56.47;31.40;;;;;;;10.79;70.42;102038.19;5054463;28;20059;-80
2024/03/06 05:16:08;;;;;;;58.65;32.67;;;;;;;10.79;70.01;102040.81;5052299;28;20041;-80
2024/03/06 05:18:35;;;;;;;56.83;32.10;;;;;;;10.67;69.96;102045.63;5054095;28;20029;-79
2024/03/06 05:21:00;;;;;;;55.80;30.95;;;;;;;10.57;70.00;102054.88;5054335;28;20056;-80
2024/03/06 05:23:25;;;;;;;58.83;32.63;;;;;;;10.45;70.32;102052.75;5053059;28;20041;-79
2024/03/06 05:25:59;;;;;;;64.63;33.90;;;;;;;10.38;70.44;102053.38;5056315;28;20033;-80
2024/03/06 05:28:25;;;;;;;60.17;32.88;;;;;;;10.21;70.90;102054.56;5058100;28;20037;-80
2024/03/06 05:30:50;;;;;;;58.42;32.90;;;;;;;10.33;71.53;102054.06;5060196;28;20098;-79
2024/03/06 05:33:19;;;;;;;59.10;33.25;;;;;;;10.35;71.30;102055.03;5068844;28;20078;-80
2024/03/06 05:35:44;;;;;;;64.38;33.92;;;;;;;10.13;72.13;102059.47;5066323;28;20037;-80
2024/03/06 05:38:09;;;;;;;60.45;34.13;;;;;;;9.96;73.01;102064.94;5066420;28;20413;-80
2024/03/06 05:40:40;;;;;;;62.08;34.17;;;;;;;10.04;72.96;102056.56;5062118;28;20044;-80
2024/03/06 05:43:08;;;;;;;61.70;33.92;;;;;;;10.20;72.64;102059.72;5068539;28;20093;-78
2024/03/06 05:45:43;;;;;;;66.00;36.47;;;;;;;10.20;72.51;102063.19;5062160;28;20033;-80
2024/03/06 05:48:11;;;;;;;63.38;34.85;;;;;;;10.23;71.96;102063.31;5071224;28;20112;-79
2024/03/06 05:50:36;;;;;;;65.00;34.78;;;;;;;10.22;72.26;102068.47;5066546;28;20062;-80
2024/03/06 05:53:08;;;;;;;64.72;36.25;;;;;;;10.17;71.75;102070.94;5062669;28;20029;-80
2024/03/06 05:55:33;;;;;;;66.70;35.25;;;;;;;10.05;72.14;102078.28;5067504;28;20029;-81
2024/03/06 05:57:59;;;;;;;68.50;37.60;;;;;;;10.09;71.99;102081.06;5052501;28;20112;-80
2024/03/06 06:00:24;;;;;;;67.40;39.05;;;;;;;10.01;72.32;102081.59;5064215;28;20512;-79
2024/03/06 06:02:50;;;;;;;68.15;36.92;;;;;;;10.01;72.43;102086.81;5057535;28;20116;-80
2024/03/06 06:05:22;;;;;;;71.38;38.67;;;;;;;9.95;72.86;102089.22;5051640;28;20029;-80
2024/03/06 06:07:48;;;;;;;68.75;36.38;;;;;;;10.01;72.70;102092.03;5052196;28;20497;-79
2024/03/06 06:10:14;;;;;;;67.65;37.55;;;;;;;9.96;72.86;102098.81;5052722;28;20116;-79
2024/03/06 06:12:45;;;;;;;74.05;38.22;;;;;;;9.91;72.74;102095.16;5052327;28;20037;-81
2024/03/06 06:15:14;;;;;;;70.28;36.25;;;;;;;9.90;73.00;102107.28;5051655;28;20052;-80
2024/03/06 06:17:46;;;;;;;69.10;35.60;;;;;;;9.83;73.13;102107.91;5052348;28;20525;-80
2024/03/06 06:20:14;;;;;;;68.10;36.20;;;;;;;9.92;73.38;102112.56;5052537;28;20033;-79
2024/03/06 06:22:49;;;;;;;73.65;37.92;;;;;;;9.89;73.52;102117.66;5053067;28;20090;-79
2024/03/06 06:25:15;;;;;;;71.40;37.85;;;;;;;9.81;73.51;102121.72;5059820;28;20028;-79
2024/03/06 06:27:41;;;;;;;77.47;40.20;;;;;;;9.49;75.27;102117.91;5061191;28;20029;-80
2024/03/06 06:30:11;;;;;;;76.15;41.40;;;;;;;9.21;77.06;102126.41;5054455;28;20036;-80
2024/03/06 06:32:40;;;;;;;75.10;39.83;;;;;;;9.15;77.51;102131.38;5055884;28;20045;-80
2024/03/06 06:35:06;;;;;;;76.50;39.33;;;;;;;9.59;75.78;102131.31;5056191;28;20025;-80
2024/03/06 06:37:31;;;;;;;76.07;39.42;;;;;;;9.26;76.79;102145.69;5056321;28;20112;-80
2024/03/06 06:39:56;;;;;;;76.57;38.72;;;;;;;9.32;77.52;102149.41;5072014;28;20025;-80
2024/03/06 06:42:22;;;;;;;78.55;39.88;;;;;;;9.40;77.17;102139.28;5065972;28;20063;-80
2024/03/06 06:44:47;;;;;;;76.75;39.38;;;;;;;9.78;75.96;102157.22;5062099;28;20036;-79
2024/03/06 06:47:16;;;;;;;77.68;40.55;;;;;;;9.87;75.16;102150.59;5056317;28;20035;-80
2024/03/06 06:49:41;;;;;;;73.50;38.92;;;;;;;9.91;74.52;102160.28;5055141;28;20044;-81
2024/03/06 06:52:13;;;;;;;74.45;38.28;;;;;;;9.90;74.15;102162.00;5055170;28;20037;-79
2024/03/06 06:54:38;;;;;;;74.20;37.20;;;;;;;9.73;74.79;102170.91;5054682;28;20043;-80
2024/03/06 06:57:04;;;;;;;73.63;37.67;;;;;;;9.91;74.60;102171.59;5054527;28;20024;-80
2024/03/06 06:59:32;;;;;;;72.65;36.60;;;;;;;9.93;74.18;102171.66;5054312;28;20398;-79
2024/03/06 07:01:58;;;;;;;68.32;35.83;;;;;;;9.62;75.24;102169.63;5053846;28;20044;-80
2024/03/06 07:04:26;;;;;;;71.18;35.28;;;;;;;9.87;74.41;102184.44;5054995;28;20041;-79
2024/03/06 07:06:54;;;;;;;68.95;36.97;;;;;;;9.85;74.07;102181.78;5055317;28;20032;-79
2024/03/06 07:09:20;;;;;;;67.72;35.95;;;;;;;9.87;74.12;102187.94;5055561;28;20069;-79
2024/03/06 07:11:45;;;;;;;73.38;36.33;;;;;;;9.97;74.08;102190.03;5054343;28;20115;-81
2024/03/06 07:14:13;;;;;;;72.10;37.15;;;;;;;9.91;73.80;102195.03;5054449;28;20685;-80
2024/03/06 07:16:45;;;;;;;69.13;36.25;;;;;;;9.94;74.31;102196.88;5056662;28;20067;-80
2024/03/06 07:19:11;;;;;;;68.53;36.13;;;;;;;9.96;74.02;102192.59;5058286;28;20039;-80
2024/03/06 07:21:37;;;;;;;67.13;36.25;;;;;;;10.05;74.43;102200.75;5068240;28;20045;-80
2024/03/06 07:24:08;;;;;;;68.85;37.78;;;;;;;10.14;74.02;102208.88;5071900;28;20029;-79
2024/03/06 07:26:37;;;;;;;72.85;38.65;;;;;;;10.18;74.10;102207.34;5067203;28;20033;-79
2024/03/06 07:29:03;;;;;;;77.70;39.35;;;;;;;10.11;74.35;102211.41;5068063;28;20049;-80
2024/03/06 07:31:29;;;;;;;72.40;39.03;;;;;;;10.08;74.73;102214.78;5056520;28;20033;-81
2024/03/06 07:33:54;;;;;;;74.50;41.15;;;;;;;10.21;74.89;102223.06;5054894;28;20029;-80
2024/03/06 07:36:21;;;;;;;78.63;40.83;;;;;;;10.38;74.88;102216.72;5059358;28;20045;-79
2024/03/06 07:38:47;;;;;;;71.82;40.22;;;;;;;10.39;74.49;102224.63;5068380;28;20016;-81
2024/03/06 07:41:12;;;;;;;72.25;40.83;;;;;;;10.47;74.51;102235.31;5069762;28;20063;-80
2024/03/06 07:43:50;;;;;;;74.22;41.00;;;;;;;10.57;74.62;102234.81;5069436;28;20048;-80
2024/03/06 07:46:15;;;;;;;75.03;40.35;;;;;;;10.80;74.71;102236.47;5066308;28;20036;-80
2024/03/06 07:48:47;;;;;;;73.28;41.03;;;;;;;10.98;75.15;102238.81;5069784;28;20037;-79
2024/03/06 07:51:12;;;;;;;76.40;42.13;;;;;;;11.08;74.54;102243.53;5069804;28;20104;-80
2024/03/06 07:53:41;;;;;;;73.88;41.13;;;;;;;11.25;74.37;102250.19;5073480;28;20036;-80
2024/03/06 07:56:11;;;;;;;71.93;40.45;;;;;;;11.28;74.17;102250.25;5070896;28;20178;-79
2024/03/06 07:58:39;;;;;;;72.53;40.13;;;;;;;11.14;72.91;102254.16;5052247;28;20064;-80
2024/03/06 08:01:07;;;;;;;71.88;40.35;;;;;;;11.33;73.35;102247.81;5060916;28;20047;-79
2024/03/06 08:03:34;;;;;;;74.55;40.10;;;;;;;11.40;73.18;102252.41;5052617;28;20041;-80
2024/03/06 08:05:59;;;;;;;71.50;39.47;;;;;;;11.68;73.09;102255.03;5053201;28;20506;-80
2024/03/06 08:08:28;;;;;;;67.03;38.17;;;;;;;11.87;72.79;102255.63;5054189;28;20043;-78
2024/03/06 08:10:53;;;;;;;69.85;38.47;;;;;;;11.98;71.96;102259.44;5059037;28;20643;-80
2024/03/06 08:13:20;;;;;;;62.80;36.40;;;;;;;12.11;70.72;102259.84;5056628;28;20079;-79
2024/03/06 08:15:48;;;;;;;59.83;34.47;;;;;;;12.15;70.30;102256.47;5057898;28;20033;-80
2024/03/06 08:18:14;;;;;;;62.28;36.15;;;;;;;12.15;70.80;102274.78;5057707;28;20090;-79
2024/03/06 08:20:46;;;;;;;60.42;34.72;;;;;;;12.22;70.42;102270.59;5057868;28;20073;-79
2024/03/06 08:23:11;;;;;;;57.88;34.08;;;;;;;12.42;69.61;102266.84;5058376;28;20100;-79
2024/03/06 08:25:37;;;;;;;57.08;33.58;;;;;;;12.25;69.09;102273.31;5060452;28;20115;-79
2024/03/06 08:28:11;;;;;;;55.90;32.75;;;;;;;12.40;69.45;102268.50;5059655;28;20032;-78
2024/03/06 08:30:36;;;;;;;52.40;31.33;;;;;;;12.57;68.68;102274.19;5055272;28;20427;-80
2024/03/06 08:33:13;;;;;;;54.55;32.15;;;;;;;12.64;68.12;102275.25;5056048;28;20061;-80
2024/03/06 08:35:41;;;;;;;52.53;31.88;;;;;;;12.30;68.29;102278.69;5053713;28;20037;-78
2024/03/06 08:38:07;;;;;;;54.25;31.90;;;;;;;12.48;68.34;102280.09;5053210;28;20068;-80
2024/03/06 08:40:33;;;;;;;52.35;32.17;;;;;;;12.96;68.12;102288.38;5051450;28;20033;-78
2024/03/06 08:42:58;;;;;;;51.60;31.13;;;;;;;13.25;67.19;102283.91;5052843;28;20052;-79
2024/03/06 08:45:33;;;;;;;51.83;31.67;;;;;;;12.95;64.74;102288.31;5049706;28;20449;-78
2024/03/06 08:47:58;;;;;;;;;;;;;;;12.67;66.49;102293.69;5052202;28;20072;-77
2024/03/06 08:50:24;;;;;;;51.78;30.67;;;;;;;12.68;66.71;102296.34;5052196;28;19912;-78
2024/03/06 08:52:49;;;;;;;50.63;30.92;;;;;;;12.59;67.34;102296.97;5051000;28;20071;-79
2024/03/06 08:55:14;;;;;;;52.55;32.35;;;;;;;12.84;67.21;102301.13;5053058;28;20040;-79
2024/03/06 08:57:40;;;;;;;52.40;31.95;;;;;;;12.69;66.46;102298.09;5051532;28;20025;-80
2024/03/06 09:00:10;;;;;;;51.92;31.95;;;;;;;13.20;67.19;102295.09;5050496;28;20049;-78
2024/03/06 09:02:38;;;;;;;51.42;31.65;;;;;;;13.32;66.19;102301.53;5052949;28;20041;-79
2024/03/06 09:05:09;;;;;;;50.70;31.58;;;;;;;13.23;66.22;102301.31;5053542;28;20040;-79
2024/03/06 09:07:40;;;;;;;51.08;31.13;;;;;;;13.47;65.52;102311.53;5052049;28;20037;-80
2024/03/06 09:10:14;;;;;;;49.53;31.30;;;;;;;13.10;66.77;102307.06;5053981;28;20021;-78
2024/03/06 09:12:51;;;;;;;50.25;31.30;;;;;;;13.33;64.96;102311.19;5052779;28;20534;-79
2024/03/06 09:15:17;;;;;;;49.67;29.65;;;;;;;13.53;64.69;102308.16;5050698;28;20044;-79
2024/03/06 09:17:47;;;;;;;47.53;30.40;;;;;;;13.66;63.94;102312.84;5052150;28;20124;-80
2024/03/06 09:20:16;;;;;;;53.42;31.88;;;;;;;13.55;65.03;102314.31;5053907;28;20140;-81
2024/03/06 09:22:47;;;;;;;56.13;34.58;;;;;;;13.66;64.12;102318.09;5054427;28;20040;-79
2024/03/06 09:25:13;;;;;;;50.08;31.30;;;;;;;13.30;66.06;102313.69;5054314;28;20033;-78
2024/03/06 09:27:39;;;;;;;51.88;31.33;;;;;;;13.71;64.77;102322.59;5052728;28;20043;-78
2024/03/06 09:30:05;;;;;;;48.25;30.90;;;;;;;13.50;65.14;102323.78;5054010;28;20029;-79
2024/03/06 09:32:30;;;;;;;48.53;30.75;;;;;;;13.92;63.19;102322.19;5052812;28;20047;-79
2024/03/06 09:34:56;;;;;;;51.00;30.23;;;;;;;14.02;62.92;102332.03;5054077;28;20089;-80
2024/03/06 09:37:21;;;;;;;45.30;28.13;;;;;;;13.75;63.48;102320.91;5053981;28;20489;-80
2024/03/06 09:39:47;;;;;;;46.03;28.27;;;;;;;14.13;62.86;102324.41;5052820;28;20033;-80
2024/03/06 09:42:13;;;;;;;46.85;29.58;;;;;;;13.96;62.13;102333.63;5053432;28;20039;-79
2024/03/06 09:44:39;;;;;;;45.38;28.23;;;;;;;14.02;62.41;102331.16;5052173;28;21508;-80
2024/03/06 09:47:12;;;;;;;48.38;29.33;;;;;;;14.19;62.75;102335.03;5053166;28;20029;-80
2024/03/06 09:49:37;;;;;;;40.75;25.90;;;;;;;13.88;63.57;102337.81;5052496;28;20451;-79
2024/03/06 09:52:03;;;;;;;42.58;26.08;;;;;;;13.88;63.97;102337.81;5053378;28;20040;-82
2024/03/06 09:54:29;;;;;;;38.33;24.85;;;;;;;14.37;61.42;102340.72;5053079;28;20402;-79
2024/03/06 09:56:58;;;;;;;39.00;25.08;;;;;;;14.40;61.19;102340.75;5054666;28;20059;-81
2024/03/06 09:59:24;;;;;;;38.45;24.65;;;;;;;14.39;60.84;102341.63;5062218;28;20482;-79
2024/03/06 10:01:54;;;;;;;38.25;24.75;;;;;;;14.48;60.91;102341.81;5060200;28;20040;-81
2024/03/06 10:04:19;;;;;;;38.47;23.80;;;;;;;14.35;61.64;102350.25;5055324;28;20608;-80
2024/03/06 10:06:46;;;;;;;41.75;25.02;;;;;;;14.23;61.46;102343.00;5060006;28;20040;-80
2024/03/06 10:09:11;;;;;;;37.95;23.48;;;;;;;14.78;60.66;102353.78;5059435;28;20032;-80
2024/03/06 10:11:40;;;;;;;39.30;23.63;;;;;;;14.56;60.66;102353.34;5056993;28;20048;-81
2024/03/06 10:14:12;;;;;;;37.53;24.85;;;;;;;14.54;61.00;102355.06;5057307;28;20033;-81
2024/03/06 10:16:51;;;;;;;42.72;25.20;;;;;;;14.92;59.24;102358.44;5057883;28;20045;-79
2024/03/06 10:19:18;;;;;;;42.38;25.52;;;;;;;14.74;61.01;102359.84;5061966;28;20029;-79
2024/03/06 10:21:45;;;;;;;37.10;24.25;;;;;;;15.01;59.99;102358.59;5056044;28;20037;-79
2024/03/06 10:24:11;;;;;;;36.70;23.73;;;;;;;15.11;58.88;102358.78;5056759;28;20124;-79
2024/03/06 10:26:36;;;;;;;38.88;25.13;;;;;;;14.80;59.19;102359.94;5055860;28;20116;-81
2024/03/06 10:29:15;;;;;;;38.95;24.60;;;;;;;14.94;59.34;102369.84;5057386;28;20044;-79
2024/03/06 10:31:41;;;;;;;43.88;24.63;;;;;;;15.08;59.01;102367.50;5058098;28;20449;-80
2024/03/06 10:34:10;;;;;;;36.90;24.25;;;;;;;15.29;58.68;102367.00;5057683;28;20040;-79
2024/03/06 10:36:37;;;;;;;35.13;21.90;;;;;;;15.14;58.89;102369.34;5057668;28;20033;-81
2024/03/06 10:39:03;;;;;;;38.83;21.70;;;;;;;15.41;57.33;102372.47;5059665;28;20102;-82
2024/03/06 10:41:32;;;;;;;33.33;20.65;;;;;;;15.64;57.45;102371.16;5060740;28;20033;-82
2024/03/06 10:44:04;;;;;;;33.83;21.05;;;;;;;14.58;59.62;102364.75;5061187;28;20037;-80
2024/03/06 10:46:36;;;;;;;35.20;22.42;;;;;;;15.13;59.31;102365.81;5056818;28;20556;-82
2024/03/06 10:49:03;;;;;;;32.35;20.08;;;;;;;15.21;58.44;102376.47;5058240;28;20049;-80
2024/03/06 10:51:35;;;;;;;30.67;20.02;;;;;;;15.23;59.44;102374.78;5057614;28;20129;-81
2024/03/06 10:54:01;;;;;;;33.20;20.20;;;;;;;15.67;57.95;102375.59;5059364;28;20091;-81
2024/03/06 10:56:30;;;;;;;27.58;18.33;;;;;;;15.17;57.57;102370.31;5064575;28;20025;-81
2024/03/06 10:58:59;;;;;;;27.50;17.70;;;;;;;15.38;57.24;102373.28;5061790;28;20033;-81
2024/03/06 11:01:25;;;;;;;28.38;18.73;;;;;;;15.43;55.99;102378.63;5060678;28;20033;-80
2024/03/06 11:03:52;;;;;;;23.85;14.88;;;;;;;15.11;56.29;102377.19;5064792;28;20079;-80
2024/03/06 11:06:17;;;;;;;23.23;13.82;;;;;;;15.97;53.53;102380.44;5068296;28;20033;-82
2024/03/06 11:08:43;;;;;;;19.48;12.82;;;;;;;15.81;52.79;102382.81;5065404;28;20096;-80
2024/03/06 11:11:22;;;;;;;19.42;11.85;;;;;;;15.73;51.93;102392.34;5069165;28;20088;-80